Time,TemperatureF,DewpointF,PressureIn,WindDirection,WindDirectionDegrees,WindSpeedMPH,WindSpeedGustMPH,Humidity,HourlyPrecipIn,Conditions,Clouds,dailyrainin,SoftwareType,DateUTC
2013-04-18 00:03:00,57.0,56.0,-100.00,NW,318,1.0,3.0,98,0.00,,,1.96,,2013-04-18 04:03:00,
2013-04-18 00:13:00,57.0,56.0,-100.00,NW,318,1.0,3.0,98,0.00,,,1.96,,2013-04-18 04:13:00,
2013-04-18 00:43:00,56.0,56.0,-100.00,SSE,164,0.0,0.0,99,0.00,,,1.96,,2013-04-18 04:43:00,
2013-04-18 00:53:00,56.0,56.0,-100.00,SSE,164,0.0,0.0,99,0.00,,,1.96,,2013-04-18 04:53:00,
2013-04-18 01:02:00,56.0,56.0,-100.00,SSE,164,0.0,0.0,99,0.00,,,1.96,,2013-04-18 05:02:00,
2013-04-18 01:12:00,56.0,56.0,-100.00,SSE,164,0.0,0.0,99,0.00,,,1.96,,2013-04-18 05:12:00,
2013-04-18 01:42:00,55.0,55.0,-100.00,SSE,161,0.0,0.0,99,0.00,,,1.18,,2013-04-18 05:42:00,
2013-04-18 01:52:00,55.0,55.0,-100.00,SSE,161,0.0,0.0,99,0.00,,,1.18,,2013-04-18 05:52:00,
2013-04-18 02:02:00,55.0,55.0,-100.00,SSE,161,0.0,0.0,99,0.00,,,1.18,,2013-04-18 06:02:00,
2013-04-18 02:12:00,55.0,55.0,-100.00,SSE,161,0.0,0.0,99,0.00,,,1.18,,2013-04-18 06:12:00,
2013-04-18 02:32:00,54.0,54.0,-100.00,ENE,61,0.0,0.0,99,0.00,,,1.18,,2013-04-18 06:32:00,
2013-04-18 02:42:00,54.0,54.0,-100.00,ENE,61,0.0,0.0,99,0.00,,,1.18,,2013-04-18 06:42:00,
2013-04-18 02:52:00,54.0,54.0,-100.00,ENE,61,0.0,0.0,99,0.00,,,1.18,,2013-04-18 06:52:00,
2013-04-18 03:02:00,54.0,54.0,-100.00,ENE,61,0.0,0.0,99,0.00,,,1.18,,2013-04-18 07:02:00,
2013-04-18 03:12:00,54.0,54.0,-100.00,ENE,61,0.0,0.0,99,0.00,,,1.18,,2013-04-18 07:12:00,
2013-04-18 03:42:00,54.0,54.0,-100.00,SE,135,0.0,2.0,99,0.00,,,1.18,,2013-04-18 07:42:00,
2013-04-18 03:53:00,54.0,54.0,-100.00,SE,135,0.0,2.0,99,0.00,,,1.18,,2013-04-18 07:53:00,
2013-04-18 04:02:00,54.0,54.0,-100.00,SE,135,0.0,2.0,99,0.00,,,1.18,,2013-04-18 08:02:00,
2013-04-18 04:12:00,54.0,54.0,-100.00,SE,135,0.0,2.0,99,0.00,,,1.18,,2013-04-18 08:12:00,
2013-04-18 04:42:00,54.0,54.0,-100.00,SW,224,0.0,0.0,99,0.00,,,1.18,,2013-04-18 08:42:00,
2013-04-18 04:52:00,54.0,54.0,-100.00,SW,224,0.0,0.0,99,0.00,,,1.18,,2013-04-18 08:52:00,
2013-04-18 05:02:00,54.0,54.0,-100.00,SW,224,0.0,0.0,99,0.00,,,1.18,,2013-04-18 09:02:00,
2013-04-18 05:12:00,54.0,54.0,-100.00,SW,224,0.0,0.0,99,0.00,,,1.18,,2013-04-18 09:12:00,
2013-04-18 05:43:00,53.0,53.0,-100.00,South,187,1.0,2.0,99,0.00,,,1.15,,2013-04-18 09:43:00,
2013-04-18 05:53:00,53.0,53.0,-100.00,South,187,1.0,2.0,99,0.00,,,1.15,,2013-04-18 09:53:00,
2013-04-18 06:03:00,53.0,53.0,-100.00,South,187,1.0,2.0,99,0.00,,,1.15,,2013-04-18 10:03:00,
2013-04-18 06:12:00,53.0,53.0,-100.00,South,187,1.0,2.0,99,0.00,,,1.15,,2013-04-18 10:12:00,
2013-04-18 06:33:00,54.0,54.0,-100.00,SE,135,2.0,4.0,99,0.00,,,0.62,,2013-04-18 10:33:00,
2013-04-18 06:42:00,54.0,54.0,-100.00,SE,135,2.0,4.0,99,0.00,,,0.62,,2013-04-18 10:42:00,
2013-04-18 06:53:00,54.0,54.0,-100.00,SE,135,2.0,4.0,99,0.00,,,0.62,,2013-04-18 10:53:00,
2013-04-18 07:03:00,54.0,54.0,-100.00,SE,135,2.0,4.0,99,0.00,,,0.62,,2013-04-18 11:03:00,
2013-04-18 07:12:00,54.0,54.0,-100.00,SE,135,2.0,4.0,99,0.00,,,0.62,,2013-04-18 11:12:00,
2013-04-18 07:32:00,55.0,55.0,-100.00,ENE,65,3.0,6.0,100,0.00,,,0.60,,2013-04-18 11:32:00,
2013-04-18 07:42:00,55.0,55.0,-100.00,ENE,65,3.0,6.0,100,0.00,,,0.60,,2013-04-18 11:42:00,
2013-04-18 07:52:00,55.0,55.0,-100.00,ENE,65,3.0,6.0,100,0.00,,,0.60,,2013-04-18 11:52:00,
2013-04-18 08:02:00,55.0,55.0,-100.00,ENE,65,3.0,6.0,100,0.00,,,0.60,,2013-04-18 12:02:00,
2013-04-18 08:12:00,55.0,55.0,-100.00,ENE,65,3.0,6.0,100,0.00,,,0.60,,2013-04-18 12:12:00,
2013-04-18 08:42:00,58.0,58.0,-100.00,ENE,76,2.0,5.0,100,0.00,,,0.52,,2013-04-18 12:42:00,
2013-04-18 08:53:00,58.0,58.0,-100.00,ENE,76,2.0,5.0,100,0.00,,,0.52,,2013-04-18 12:53:00,
2013-04-18 09:03:00,58.0,58.0,-100.00,ENE,76,2.0,5.0,100,0.00,,,0.52,,2013-04-18 13:03:00,
2013-04-18 09:12:00,58.0,58.0,-100.00,ENE,76,2.0,5.0,100,0.00,,,0.52,,2013-04-18 13:12:00,
2013-04-18 09:43:00,71.0,61.0,-100.00,NE,56,4.0,9.0,71,0.00,,,0.21,,2013-04-18 13:43:00,
2013-04-18 09:53:00,71.0,61.0,-100.00,NE,56,4.0,9.0,71,0.00,,,0.21,,2013-04-18 13:53:00,
2013-04-18 10:03:00,71.0,61.0,-100.00,NE,56,4.0,9.0,71,0.00,,,0.21,,2013-04-18 14:03:00,
2013-04-18 10:12:00,71.0,61.0,-100.00,NE,56,4.0,9.0,71,0.00,,,0.21,,2013-04-18 14:12:00,
2013-04-18 10:33:00,75.0,60.0,-100.00,NNW,340,6.0,14.0,59,0.00,,,0.09,,2013-04-18 14:33:00,
2013-04-18 10:43:00,75.0,60.0,-100.00,NNW,340,6.0,14.0,59,0.00,,,0.09,,2013-04-18 14:43:00,
2013-04-18 10:52:00,75.0,60.0,-100.00,NNW,340,6.0,14.0,59,0.00,,,0.09,,2013-04-18 14:52:00,
2013-04-18 11:03:00,75.0,60.0,-100.00,NNW,340,6.0,14.0,59,0.00,,,0.09,,2013-04-18 15:03:00,
2013-04-18 11:12:00,75.0,60.0,-100.00,NNW,340,6.0,14.0,59,0.00,,,0.09,,2013-04-18 15:12:00,
2013-04-18 11:43:00,77.0,59.0,-100.00,NNW,345,9.0,25.0,54,0.00,,,0.02,,2013-04-18 15:43:00,
2013-04-18 11:53:00,77.0,59.0,-100.00,NNW,345,9.0,25.0,54,0.00,,,0.02,,2013-04-18 15:53:00,
2013-04-18 12:03:00,77.0,59.0,-100.00,NNW,345,9.0,25.0,54,0.00,,,0.02,,2013-04-18 16:03:00,
2013-04-18 12:13:00,77.0,59.0,-100.00,NNW,345,9.0,25.0,54,0.00,,,0.02,,2013-04-18 16:13:00,
2013-04-18 12:33:00,79.0,58.0,-100.00,North,359,7.0,18.0,49,0.00,,,0.01,,2013-04-18 16:33:00,
2013-04-18 12:43:00,79.0,58.0,-100.00,North,359,7.0,18.0,49,0.00,,,0.01,,2013-04-18 16:43:00,
2013-04-18 12:53:00,79.0,58.0,-100.00,North,359,7.0,18.0,49,0.00,,,0.01,,2013-04-18 16:53:00,
2013-04-18 13:03:00,79.0,58.0,-100.00,North,359,7.0,18.0,49,0.00,,,0.01,,2013-04-18 17:03:00,
2013-04-18 13:12:00,79.0,58.0,-100.00,North,359,7.0,18.0,49,0.00,,,0.01,,2013-04-18 17:12:00,
2013-04-18 13:43:00,81.0,56.0,-100.00,North,354,9.0,18.0,42,0.00,,,0.01,,2013-04-18 17:43:00,
2013-04-18 13:52:00,81.0,56.0,-100.00,North,354,9.0,18.0,42,0.00,,,0.01,,2013-04-18 17:52:00,
2013-04-18 14:03:00,81.0,56.0,-100.00,North,354,9.0,18.0,42,0.00,,,0.01,,2013-04-18 18:03:00,
2013-04-18 14:13:00,81.0,56.0,-100.00,North,354,9.0,18.0,42,0.00,,,0.01,,2013-04-18 18:13:00,
2013-04-18 14:43:00,82.0,55.0,-100.00,NNE,15,11.0,22.0,39,0.00,,,0.01,,2013-04-18 18:43:00,
2013-04-18 14:53:00,82.0,55.0,-100.00,NNE,15,11.0,22.0,39,0.00,,,0.01,,2013-04-18 18:53:00,
2013-04-18 15:03:00,82.0,55.0,-100.00,NNE,15,11.0,22.0,39,0.00,,,0.01,,2013-04-18 19:03:00,
2013-04-18 15:12:00,82.0,55.0,-100.00,NNE,15,11.0,22.0,39,0.00,,,0.01,,2013-04-18 19:12:00,
2013-04-18 15:43:00,83.0,54.0,-100.00,NNE,27,9.0,23.0,37,0.00,,,0.01,,2013-04-18 19:43:00,
2013-04-18 15:53:00,83.0,54.0,-100.00,NNE,27,9.0,23.0,37,0.00,,,0.01,,2013-04-18 19:53:00,
2013-04-18 16:03:00,83.0,54.0,-100.00,NNE,27,9.0,23.0,37,0.00,,,0.01,,2013-04-18 20:03:00,
2013-04-18 16:12:00,83.0,54.0,-100.00,NNE,27,9.0,23.0,37,0.00,,,0.01,,2013-04-18 20:12:00,
2013-04-18 16:43:00,83.0,52.0,-100.00,NNW,343,9.0,24.0,34,0.00,,,0.01,,2013-04-18 20:43:00,
2013-04-18 16:52:00,83.0,52.0,-100.00,NNW,343,9.0,24.0,34,0.00,,,0.01,,2013-04-18 20:52:00,
2013-04-18 17:03:00,83.0,52.0,-100.00,NNW,343,9.0,24.0,34,0.00,,,0.01,,2013-04-18 21:03:00,
2013-04-18 17:12:00,83.0,52.0,-100.00,NNW,343,9.0,24.0,34,0.00,,,0.01,,2013-04-18 21:12:00,
2013-04-18 17:43:00,83.0,51.0,-100.00,North,0,9.0,19.0,33,0.00,,,0.01,,2013-04-18 21:43:00,
2013-04-18 17:53:00,83.0,51.0,-100.00,North,0,9.0,19.0,33,0.00,,,0.01,,2013-04-18 21:53:00,
2013-04-18 18:03:00,83.0,51.0,-100.00,North,0,9.0,19.0,33,0.00,,,0.01,,2013-04-18 22:03:00,
2013-04-18 18:13:00,83.0,51.0,-100.00,North,0,9.0,19.0,33,0.00,,,0.01,,2013-04-18 22:13:00,
2013-04-18 18:42:00,82.0,50.0,-100.00,NNW,342,9.0,21.0,33,0.00,,,0.00,,2013-04-18 22:42:00,
2013-04-18 18:53:00,82.0,50.0,-100.00,NNW,342,9.0,21.0,33,0.00,,,0.00,,2013-04-18 22:53:00,
2013-04-18 19:04:00,82.0,50.0,-100.00,NNW,342,9.0,21.0,33,0.00,,,0.00,,2013-04-18 23:04:00,
2013-04-18 19:12:00,82.0,50.0,-100.00,NNW,342,9.0,21.0,33,0.00,,,0.00,,2013-04-18 23:12:00,
2013-04-18 19:42:00,78.0,48.0,-100.00,NE,54,6.0,22.0,35,0.00,,,0.00,,2013-04-18 23:42:00,
2013-04-18 19:52:00,78.0,48.0,-100.00,NE,54,6.0,22.0,35,0.00,,,0.00,,2013-04-18 23:52:00,
2013-04-18 20:01:00,78.0,48.0,-100.00,NE,54,6.0,22.0,35,0.00,,,0.00,,2013-04-19 00:01:00,
2013-04-18 20:12:00,78.0,48.0,-100.00,NE,54,6.0,22.0,35,0.00,,,0.00,,2013-04-19 00:12:00,
2013-04-18 20:42:00,76.0,49.0,-100.00,North,7,5.0,17.0,38,0.00,,,0.00,,2013-04-19 00:42:00,
2013-04-18 20:52:00,76.0,49.0,-100.00,North,7,5.0,17.0,38,0.00,,,0.00,,2013-04-19 00:52:00,
2013-04-18 21:01:00,76.0,49.0,-100.00,North,7,5.0,17.0,38,0.00,,,0.00,,2013-04-19 01:01:00,
2013-04-18 21:11:00,76.0,49.0,-100.00,North,7,5.0,17.0,38,0.00,,,0.00,,2013-04-19 01:11:00,
2013-04-18 21:42:00,75.0,50.0,-100.00,North,358,5.0,11.0,42,0.00,,,0.00,,2013-04-19 01:42:00,
2013-04-18 21:52:00,75.0,50.0,-100.00,North,358,5.0,11.0,42,0.00,,,0.00,,2013-04-19 01:52:00,
2013-04-18 22:02:00,75.0,50.0,-100.00,North,358,5.0,11.0,42,0.00,,,0.00,,2013-04-19 02:02:00,
2013-04-18 22:11:00,75.0,50.0,-100.00,North,358,5.0,11.0,42,0.00,,,0.00,,2013-04-19 02:11:00,
2013-04-18 22:42:00,73.0,53.0,-100.00,North,10,6.0,11.0,49,0.00,,,0.00,,2013-04-19 02:42:00,
2013-04-18 22:52:00,73.0,53.0,-100.00,North,10,6.0,11.0,49,0.00,,,0.00,,2013-04-19 02:52:00,
2013-04-18 23:01:00,73.0,53.0,-100.00,North,10,6.0,11.0,49,0.00,,,0.00,,2013-04-19 03:01:00,
2013-04-18 23:12:00,73.0,53.0,-100.00,North,10,6.0,11.0,49,0.00,,,0.00,,2013-04-19 03:12:00,
2013-04-18 23:43:00,72.0,52.0,-100.00,North,11,4.0,12.0,50,0.00,,,0.00,,2013-04-19 03:43:00,
2013-04-18 23:53:00,72.0,52.0,-100.00,North,11,4.0,12.0,50,0.00,,,0.00,,2013-04-19 03:53:00,